Tyre, New York
Current Conditions -  °F | °C
As of 4:53 AM on Monday 26 Jan 2015 (Local Time) from KPEO Reporting Station
Overcast Overcast  
Wind Chill:   Ceiling: 7500
Heat Index: 13°   Visibility: 10mi
Dew Point:   Wind: 7mph
Humidity: 59%   Direction: 70°ENE
Pressure: 29.96"   Gusts: NA
Location:  42.9691°N, 76.7961°W
Report Text: KPEO 260953Z AUTO 07006KT 10SM OVC075 M11/M17 A2996 RMK AO2 SLP165 T11061172
Loading
Personal Weather Stations






























Interactive Weather Map New forecast layout! Learn more

10-Day Weather Forecast

Advertisements
Track Severe Weather on mobile